Time;durP1;ratioP1;P1;durP2;ratioP2;P2;SDS_P1;SDS_P2;PMS_P1;PMS_P2;Temp;Humidity;BMP_temperature;BMP_pressure;BME280_temperature;BME280_humidity;BME280_pressure;Samples;Min_cycle;Max_cycle;Signal;HPM_P1;HPM_P2
2021/08/18 00:01:21;;;;;;;;;;;;;;;15.78;60.04;99811.16;4438380;32;20370;-91
2021/08/18 00:03:46;;;;;;;;;;;;;;;15.91;60.05;99809.63;4437855;32;20338;-91
2021/08/18 00:06:12;;;;;;;;;;;;;;;15.74;60.05;99809.63;4451290;32;19989;-90
2021/08/18 00:08:37;;;;;;;;;;;;;;;15.68;60.04;99807.34;4438253;32;20003;-91
2021/08/18 00:11:02;;;;;;;;;;;;;;;15.65;60.04;99809.19;4439631;32;20543;-91
2021/08/18 00:13:28;;;;;;;;;;;;;;;15.70;60.04;99808.09;4450970;32;20049;-91
2021/08/18 00:15:56;;;;;;;;;;;;;;;15.80;60.05;99817.19;4451197;32;20035;-91
2021/08/18 00:18:21;;;;;;;;;;;;;;;15.78;60.05;99822.53;4439400;32;20752;-92
2021/08/18 00:20:46;;;;;;;;;;;;;;;15.76;60.04;99818.28;4439661;32;20015;-92
2021/08/18 00:23:11;;;;;;;;;;;;;;;15.79;60.05;99812.88;4439940;32;20358;-91
2021/08/18 00:25:36;;;;;;;;;;;;;;;15.74;60.04;99810.50;4452549;32;20011;-92
2021/08/18 00:28:02;;;;;;;;;;;;;;;15.52;60.03;99818.59;4438874;32;19985;-91
2021/08/18 00:30:27;;;;;;;;;;;;;;;15.73;60.04;99824.53;4438034;32;19997;-91
2021/08/18 00:32:52;;;;;;;;;;;;;;;15.58;60.03;99813.03;4438143;32;19973;-91
2021/08/18 00:35:18;;;;;;;;;;;;;;;15.57;60.04;99813.94;4438361;32;20016;-91
2021/08/18 00:37:43;;;;;;;;;;;;;;;15.68;60.04;99804.72;4438833;32;20012;-91
2021/08/18 00:40:08;;;;;;;;;;;;;;;15.59;60.03;99801.63;4451001;32;20346;-91
2021/08/18 00:42:34;;;;;;;;;;;;;;;15.55;60.04;99805.31;4450880;32;20005;-90
2021/08/18 00:44:59;;;;;;;;;;;;;;;15.60;60.03;99798.06;4438041;32;20031;-91
2021/08/18 00:47:24;;;;;;;;;;;;;;;15.58;60.03;99796.44;4437922;32;20036;-91
2021/08/18 00:49:49;;;;;;;;;;;;;;;15.52;60.03;99797.59;4437853;32;19985;-91
2021/08/18 00:52:15;;;;;;;;;;;;;;;15.67;60.04;99789.91;4437890;32;19990;-91
2021/08/18 00:54:40;;;;;;;;;;;;;;;15.73;60.04;99806.16;4437187;32;20334;-91
2021/08/18 00:57:06;;;;;;;;;;;;;;;15.69;60.04;99809.03;4437784;32;20028;-92
2021/08/18 00:59:31;;;;;;;;;;;;;;;15.82;60.05;99807.44;4438384;32;20348;-90
2021/08/18 01:01:57;;;;;;;;;;;;;;;15.83;60.05;99809.16;4451867;32;19984;-91
2021/08/18 01:04:22;;;;;;;;;;;;;;;15.79;60.05;99803.22;4451857;32;20266;-91
2021/08/18 01:06:48;;;;;;;;;;;;;;;15.78;60.05;99801.53;4437733;32;20027;-91
2021/08/18 01:09:14;;;;;;;;;;;;;;;15.77;60.04;99809.47;4437704;32;20024;-91
2021/08/18 01:11:39;;;;;;;;;;;;;;;15.71;60.05;99815.06;4437696;32;19985;-91
2021/08/18 01:14:05;;;;;;;;;;;;;;;15.80;60.05;99820.66;4450663;32;19989;-92
2021/08/18 01:16:32;;;;;;;;;;;;;;;15.83;60.05;99822.28;4437777;32;20286;-91
2021/08/18 01:18:57;;;;;;;;;;;;;;;15.91;60.05;99810.47;4438362;32;20031;-91
2021/08/18 01:21:22;;;;;;;;;;;;;;;15.83;60.05;99806.53;4459991;32;20028;-91
2021/08/18 01:23:48;;;;;;;;;;;;;;;15.85;60.04;99808.16;4451235;32;23862;-92
2021/08/18 01:26:13;;;;;;;;;;;;;;;15.94;60.06;99817.31;4448794;32;20011;-91
2021/08/18 01:28:38;;;;;;;;;;;;;;;15.96;60.06;99815.47;4455510;32;20032;-91
2021/08/18 01:31:03;;;;;;;;;;;;;;;16.08;60.06;99809.53;4438956;32;20363;-91
2021/08/18 01:33:28;;;;;;;;;;;;;;;16.09;60.06;99800.75;4437522;32;20055;-91
2021/08/18 01:35:54;;;;;;;;;;;;;;;15.96;60.05;99803.19;4437085;32;23163;-91
2021/08/18 01:38:20;;;;;;;;;;;;;;;15.84;60.05;99805.59;4437621;32;20041;-90
2021/08/18 01:40:47;;;;;;;;;;;;;;;16.03;60.06;99805.47;4450365;32;19990;-91
2021/08/18 01:43:12;;;;;;;;;;;;;;;15.85;60.04;99812.53;4437425;32;19990;-91
2021/08/18 01:45:38;;;;;;;;;;;;;;;15.93;60.06;99803.34;4437473;32;20024;-91
2021/08/18 01:48:10;;;;;;;;;;;;;;;15.81;60.05;99800.50;4437387;32;20307;-92
2021/08/18 01:50:36;;;;;;;;;;;;;;;15.91;60.05;99799.09;4450385;32;19989;-91
2021/08/18 01:53:01;;;;;;;;;;;;;;;15.87;60.06;99811.56;4437231;32;20035;-91
2021/08/18 01:55:26;;;;;;;;;;;;;;;15.90;60.05;99815.78;4437453;32;20054;-91
2021/08/18 01:57:52;;;;;;;;;;;;;;;15.95;60.06;99822.50;4450133;32;20310;-91
2021/08/18 02:00:18;;;;;;;;;;;;;;;15.93;60.04;99821.72;4437107;32;19972;-92
2021/08/18 02:02:43;;;;;;;;;;;;;;;16.00;60.06;99808.25;4437099;32;20267;-91
2021/08/18 02:05:09;;;;;;;;;;;;;;;15.98;60.06;99808.34;4451375;32;20012;-91
2021/08/18 02:07:34;;;;;;;;;;;;;;;15.93;60.06;99803.34;4452073;32;19977;-91
2021/08/18 02:10:00;;;;;;;;;;;;;;;15.98;60.06;99818.84;4452052;32;20033;-91
2021/08/18 02:12:25;;;;;;;;;;;;;;;16.18;60.07;99820.41;4451965;32;19989;-91
2021/08/18 02:14:50;;;;;;;;;;;;;;;16.04;60.06;99829.00;4439013;32;20037;-91
2021/08/18 02:17:15;;;;;;;;;;;;;;;15.98;60.06;99826.72;4438961;32;20306;-90
2021/08/18 02:19:41;;;;;;;;;;;;;;;16.07;60.06;99814.88;4438633;32;19973;-91
2021/08/18 02:22:06;;;;;;;;;;;;;;;15.99;60.05;99812.66;4438962;32;19997;-91
2021/08/18 02:24:31;;;;;;;;;;;;;;;15.98;60.05;99815.38;4438970;32;20040;-91
2021/08/18 02:26:56;;;;;;;;;;;;;;;15.88;60.06;99815.88;4438989;32;20350;-91
2021/08/18 02:29:21;;;;;;;;;;;;;;;15.99;60.06;99804.78;4438826;32;19978;-91
2021/08/18 02:31:47;;;;;;;;;;;;;;;16.00;60.07;99801.22;4451823;32;20049;-92
2021/08/18 02:34:12;;;;;;;;;;;;;;;16.01;60.05;99799.47;4438930;32;20004;-92
2021/08/18 02:36:38;;;;;;;;;;;;;;;15.95;60.06;99798.00;4452022;32;19988;-91
2021/08/18 02:39:03;;;;;;;;;;;;;;;15.91;60.05;99797.34;4438985;32;19997;-91
2021/08/18 02:41:28;;;;;;;;;;;;;;;15.88;60.05;99796.66;4452110;32;20036;-91
2021/08/18 02:43:54;;;;;;;;;;;;;;;15.71;60.04;99801.94;4438822;32;20469;-92
2021/08/18 02:46:19;;;;;;;;;;;;;;;15.81;60.05;99808.38;4438822;32;20017;-91
2021/08/18 02:48:44;;;;;;;;;;;;;;;15.89;60.05;99803.59;4438895;32;19970;-91
2021/08/18 02:51:09;;;;;;;;;;;;;;;15.88;60.06;99794.87;4438595;32;20010;-91
2021/08/18 02:53:35;;;;;;;;;;;;;;;15.94;60.06;99777.94;4438250;32;24417;-91
2021/08/18 02:56:00;;;;;;;;;;;;;;;15.98;60.06;99782.09;4438841;32;19992;-91
2021/08/18 02:58:25;;;;;;;;;;;;;;;15.98;60.05;99789.97;4451587;32;19996;-91
2021/08/18 03:00:50;;;;;;;;;;;;;;;15.90;60.05;99793.00;4440108;32;19988;-91
2021/08/18 03:03:16;;;;;;;;;;;;;;;15.87;60.05;99789.72;4451726;32;20287;-92
2021/08/18 03:05:41;;;;;;;;;;;;;;;15.84;60.04;99805.59;4451553;32;19997;-92
2021/08/18 03:08:06;;;;;;;;;;;;;;;15.72;60.05;99807.09;4438633;32;19993;-92
2021/08/18 03:10:31;;;;;;;;;;;;;;;15.78;60.04;99808.53;4451559;32;19997;-90
2021/08/18 03:12:57;;;;;;;;;;;;;;;15.82;60.05;99813.53;4438655;32;20342;-91
2021/08/18 03:15:22;;;;;;;;;;;;;;;15.79;60.05;99797.97;4438516;32;20011;-91
2021/08/18 03:17:47;;;;;;;;;;;;;;;15.81;60.04;99790.84;4451077;32;19985;-91
2021/08/18 03:20:12;;;;;;;;;;;;;;;15.89;60.05;99796.56;4438823;32;20017;-91
2021/08/18 03:22:38;;;;;;;;;;;;;;;16.03;60.06;99800.22;4439830;32;20016;-91
2021/08/18 03:25:03;;;;;;;;;;;;;;;15.85;60.04;99804.66;4453416;32;20011;-91
2021/08/18 03:27:29;;;;;;;;;;;;;;;15.81;60.05;99805.75;4453514;32;19985;-92
2021/08/18 03:29:54;;;;;;;;;;;;;;;15.78;60.04;99795.41;4439660;32;20330;-92
2021/08/18 03:32:19;;;;;;;;;;;;;;;15.87;60.05;99798.44;4438893;32;20009;-92
2021/08/18 03:34:44;;;;;;;;;;;;;;;15.98;60.05;99807.50;4438368;32;19982;-92
2021/08/18 03:37:10;;;;;;;;;;;;;;;16.00;60.05;99814.38;4451408;32;19988;-92
2021/08/18 03:39:35;;;;;;;;;;;;;;;16.08;60.05;99816.56;4451316;32;20041;-92
2021/08/18 03:42:00;;;;;;;;;;;;;;;15.94;60.06;99812.06;4451258;32;19998;-92
2021/08/18 03:44:26;;;;;;;;;;;;;;;15.98;60.05;99815.38;4438351;32;19993;-92
2021/08/18 03:46:51;;;;;;;;;;;;;;;16.17;60.07;99801.19;4438825;32;20371;-91
2021/08/18 03:49:16;;;;;;;;;;;;;;;16.25;60.07;99795.50;4451368;32;20016;-91
2021/08/18 03:51:42;;;;;;;;;;;;;;;16.36;60.08;99785.28;4438030;32;19993;-90
2021/08/18 03:54:07;;;;;;;;;;;;;;;16.32;60.08;99786.34;4438382;32;20033;-92
2021/08/18 03:56:32;;;;;;;;;;;;;;;16.30;60.07;99784.75;4451360;32;20013;-92
2021/08/18 03:58:58;;;;;;;;;;;;;;;16.22;60.06;99786.00;4438419;32;20119;-92
2021/08/18 04:01:23;;;;;;;;;;;;;;;16.20;60.07;99785.25;4451300;32;19997;-93
2021/08/18 04:03:48;;;;;;;;;;;;;;;16.10;60.06;99793.72;4451743;32;20313;-92
2021/08/18 04:06:13;;;;;;;;;;;;;;;16.09;60.07;99799.88;4439169;32;20021;-92
2021/08/18 04:08:38;;;;;;;;;;;;;;;15.93;60.05;99802.50;4451802;32;20021;-92
2021/08/18 04:11:08;;;;;;;;;;;;;;;16.02;60.06;99801.16;4438244;32;20023;-92
2021/08/18 04:13:34;;;;;;;;;;;;;;;16.01;60.05;99804.72;4450606;32;19977;-91
2021/08/18 04:15:59;;;;;;;;;;;;;;;15.94;60.06;99797.16;4450796;32;19997;-92
2021/08/18 04:18:24;;;;;;;;;;;;;;;16.11;60.06;99813.81;4451196;32;19985;-92
2021/08/18 04:20:49;;;;;;;;;;;;;;;16.00;60.05;99806.47;4438786;32;19994;-92
2021/08/18 04:23:15;;;;;;;;;;;;;;;16.04;60.06;99807.16;4443748;32;19973;-93
2021/08/18 04:25:40;;;;;;;;;;;;;;;16.14;60.06;99819.75;4452144;32;19981;-93
2021/08/18 04:28:05;;;;;;;;;;;;;;;16.03;60.06;99815.97;4449642;32;20016;-93
2021/08/18 04:30:31;;;;;;;;;;;;;;;15.94;60.06;99814.69;4455296;32;20322;-91
2021/08/18 04:32:56;;;;;;;;;;;;;;;16.05;60.06;99816.75;4453482;32;20011;-91
2021/08/18 04:35:21;;;;;;;;;;;;;;;16.08;60.06;99825.28;4451495;32;20000;-92
2021/08/18 04:37:46;;;;;;;;;;;;;;;16.06;60.06;99828.94;4451252;32;19998;-92
2021/08/18 04:40:12;;;;;;;;;;;;;;;16.22;60.06;99829.81;4451108;32;20001;-93
2021/08/18 04:42:38;;;;;;;;;;;;;;;16.40;60.08;99818.31;4437902;32;20257;-93
2021/08/18 04:45:04;;;;;;;;;;;;;;;16.44;60.07;99825.09;4439469;32;19974;-92
2021/08/18 04:47:29;;;;;;;;;;;;;;;16.60;60.09;99834.78;4450940;32;20044;-92
2021/08/18 04:49:55;;;;;;;;;;;;;;;16.53;60.08;99831.63;4451148;32;20027;-93
2021/08/18 04:52:20;;;;;;;;;;;;;;;16.58;60.09;99846.22;4437481;32;20303;-92
2021/08/18 04:54:45;;;;;;;;;;;;;;;16.62;60.08;99844.28;4437948;32;20024;-93
2021/08/18 04:57:10;;;;;;;;;;;;;;;16.94;60.11;99849.53;4437887;32;20004;-92
2021/08/18 04:59:35;;;;;;;;;;;;;;;16.80;60.10;99856.44;4437618;32;20041;-92
2021/08/18 05:02:01;;;;;;;;;;;;;;;16.93;60.11;99850.47;4450720;32;19989;-91
2021/08/18 05:04:26;;;;;;;;;;;;;;;16.80;60.10;99853.81;4437743;32;20352;-92
2021/08/18 05:06:51;;;;;;;;;;;;;;;16.75;60.09;99857.59;4450596;32;20029;-91
2021/08/18 05:09:16;;;;;;;;;;;;;;;16.78;60.09;99857.41;4437795;32;19994;-93
2021/08/18 05:11:42;;;;;;;;;;;;;;;16.79;60.10;99859.97;4450406;32;20011;-93
2021/08/18 05:14:07;;;;;;;;;;;;;;;16.91;60.10;99865.47;4437340;32;24652;-92
2021/08/18 05:16:32;;;;;;;;;;;;;;;17.24;60.12;99860.91;4439019;32;19969;-92
2021/08/18 05:18:57;;;;;;;;;;;;;;;17.13;60.11;99856.28;4439197;32;20016;-92
2021/08/18 05:21:23;;;;;;;;;;;;;;;17.30;60.12;99859.75;4437759;32;19986;-92
2021/08/18 05:23:48;;;;;;;;;;;;;;;17.37;60.13;99866.34;4437728;32;19981;-92
2021/08/18 05:26:13;;;;;;;;;;;;;;;17.50;60.13;99864.66;4437673;32;20006;-92
2021/08/18 05:28:38;;;;;;;;;;;;;;;17.61;60.14;99862.28;4450835;32;20053;-92
2021/08/18 05:31:03;;;;;;;;;;;;;;;17.66;60.14;99862.00;4450423;32;20287;-93
2021/08/18 05:33:29;;;;;;;;;;;;;;;17.83;60.15;99856.59;4437706;32;20040;-92
2021/08/18 05:35:55;;;;;;;;;;;;;;;17.86;60.16;99856.41;4450774;32;20000;-92
2021/08/18 05:38:21;;;;;;;;;;;;;;;17.81;60.15;99847.09;4450574;32;20017;-92
2021/08/18 05:40:46;;;;;;;;;;;;;;;17.94;60.16;99850.69;4437253;32;20326;-92
2021/08/18 05:43:13;;;;;;;;;;;;;;;18.03;60.16;99850.13;4450467;32;19997;-92
2021/08/18 05:45:38;;;;;;;;;;;;;;;17.71;60.15;99852.06;4437595;32;19990;-93
2021/08/18 05:48:04;;;;;;;;;;;;;;;17.96;60.16;99856.69;4437413;32;19981;-93
2021/08/18 05:50:29;;;;;;;;;;;;;;;17.94;60.16;99862.06;4450579;32;20000;-92
2021/08/18 05:52:54;;;;;;;;;;;;;;;17.91;60.15;99851.72;4450398;32;19974;-93
2021/08/18 05:55:19;;;;;;;;;;;;;;;17.90;60.15;99851.81;4437718;32;20048;-92
2021/08/18 05:57:45;;;;;;;;;;;;;;;17.82;60.14;99852.28;4450255;32;19990;-92
2021/08/18 06:00:10;;;;;;;;;;;;;;;18.02;60.16;99848.44;4437144;32;19969;-92
2021/08/18 06:02:35;;;;;;;;;;;;;;;17.98;60.16;99847.78;4437251;32;20050;-93
2021/08/18 06:05:01;;;;;;;;;;;;;;;18.21;60.17;99848.13;4450275;32;19990;-92
2021/08/18 06:07:26;;;;;;;;;;;;;;;18.52;60.18;99847.94;4437154;32;20001;-93
2021/08/18 06:09:51;;;;;;;;;;;;;;;18.39;60.18;99847.84;4437292;32;20027;-93
2021/08/18 06:12:16;;;;;;;;;;;;;;;18.46;60.18;99842.22;4436976;32;20390;-93
2021/08/18 06:14:42;;;;;;;;;;;;;;;18.47;60.19;99849.19;4437328;32;20025;-92
2021/08/18 06:17:07;;;;;;;;;;;;;;;18.72;60.20;99853.78;4450062;32;20011;-92
2021/08/18 06:19:32;;;;;;;;;;;;;;;18.64;60.20;99841.91;4450449;32;20331;-93
2021/08/18 06:21:59;;;;;;;;;;;;;;;18.73;60.20;99848.41;4438500;32;19981;-93
2021/08/18 06:24:29;;;;;;;;;;;;;;;18.86;60.21;99840.53;4439067;32;20000;-93
2021/08/18 06:26:54;;;;;;;;;;;;;;;18.90;60.21;99842.00;4438443;32;20011;-92
2021/08/18 06:29:21;;;;;;;;;;;;;;;18.74;60.20;99842.19;4438108;32;20019;-93
2021/08/18 06:31:46;;;;;;;;;;;;;;;18.84;60.20;99837.16;4436706;32;20039;-92
2021/08/18 06:34:11;;;;;;;;;;;;;;;18.83;60.20;99833.66;4450009;32;20035;-92
2021/08/18 06:36:36;;;;;;;;;;;;;;;18.96;60.22;99837.22;4436737;32;20038;-93
2021/08/18 06:39:02;;;;;;;;;;;;;;;18.99;60.21;99830.88;4438257;32;19992;-93
2021/08/18 06:41:27;;;;;;;;;;;;;;;18.95;60.21;99832.03;4449660;32;20027;-92
2021/08/18 06:43:52;;;;;;;;;;;;;;;19.21;60.22;99825.87;4449603;32;19966;-92
2021/08/18 06:46:18;;;;;;;;;;;;;;;19.16;60.22;99833.25;4438460;32;20130;-93
2021/08/18 06:48:43;;;;;;;;;;;;;;;19.26;60.23;99825.56;4436756;32;19981;-93
2021/08/18 06:51:08;;;;;;;;;;;;;;;19.25;60.23;99823.88;4450082;32;20329;-92
2021/08/18 06:53:33;;;;;;;;;;;;;;;19.33;60.24;99830.34;4439049;32;20016;-92
2021/08/18 06:55:59;;;;;;;;;;;;;;;19.33;60.23;99822.41;4439039;32;20399;-92
2021/08/18 06:58:24;;;;;;;;;;;;;;;19.24;60.23;99823.03;4438488;32;21158;-93
2021/08/18 07:03:33;;;;;;;;;;;;;;;19.46;60.25;99809.25;4451265;32;20023;-92
2021/08/18 07:05:58;;;;;;;;;;;;;;;19.74;60.25;99812.69;4452731;32;20029;-93
2021/08/18 07:08:24;;;;;;;;;;;;;;;19.77;60.25;99812.47;4451943;32;19986;-93
2021/08/18 07:10:51;;;;;;;;;;;;;;;19.73;60.25;99808.34;4451747;32;20799;-93
2021/08/18 07:13:16;;;;;;;;;;;;;;;19.37;60.23;99814.28;4439092;32;20046;-92
2021/08/18 07:15:42;;;;;;;;;;;;;;;19.41;60.24;99818.44;4439011;32;19994;-93
2021/08/18 07:18:07;;;;;;;;;;;;;;;19.38;60.24;99816.81;4451790;32;19992;-92
2021/08/18 07:20:32;;;;;;;;;;;;;;;19.32;60.23;99828.66;4442739;32;19957;-92
2021/08/18 07:22:57;;;;;;;;;;;;;;;19.60;60.24;99826.81;4453234;32;19985;-92
2021/08/18 07:25:23;;;;;;;;;;;;;;;19.66;60.25;99829.06;4465737;32;20003;-92
2021/08/18 07:27:48;;;;;;;;;;;;;;;19.58;60.25;99829.56;4456700;32;20023;-93
2021/08/18 07:30:13;;;;;;;;;;;;;;;19.73;60.26;99827.69;4454716;32;19982;-93
2021/08/18 07:32:38;;;;;;;;;;;;;;;19.83;60.26;99825.25;4451809;32;20046;-93
2021/08/18 07:35:04;;;;;;;;;;;;;;;19.94;60.27;99822.72;4438840;32;20015;-93
2021/08/18 07:37:30;;;;;;;;;;;;;;;20.06;60.26;99824.50;4438672;32;19982;-93
2021/08/18 07:39:55;;;;;;;;;;;;;;;20.27;60.28;99822.12;4451598;32;19978;-92
2021/08/18 07:42:21;;;;;;;;;;;;;;;20.38;60.28;99824.88;4451761;32;20396;-92
2021/08/18 07:44:46;;;;;;;;;;;;;;;20.55;60.29;99826.31;4438706;32;19981;-93
2021/08/18 07:47:11;;;;;;;;;;;;;;;20.45;60.29;99826.16;4438737;32;19993;-92
2021/08/18 07:49:36;;;;;;;;;;;;;;;20.40;60.29;99816.84;4440173;32;20232;-92
2021/08/18 07:52:02;;;;;;;;;;;;;;;20.29;60.28;99827.31;4438671;32;20000;-92
2021/08/18 07:54:28;;;;;;;;;;;;;;;20.69;60.30;99825.34;4438487;32;20072;-93
2021/08/18 07:56:53;;;;;;;;;;;;;;;20.91;60.31;99817.53;4451487;32;19978;-93
2021/08/18 07:59:18;;;;;;;;;;;;;;;21.00;60.32;99822.12;4438401;32;19973;-93
2021/08/18 08:01:43;;;;;;;;;;;;;;;20.73;60.30;99825.00;4451342;32;20040;-92
2021/08/18 08:04:08;;;;;;;;;;;;;;;20.80;60.31;99822.75;4438320;32;20020;-92
2021/08/18 08:06:34;;;;;;;;;;;;;;;21.00;60.32;99827.44;4438685;32;19974;-92
2021/08/18 08:08:59;;;;;;;;;;;;;;;21.13;60.33;99820.28;4451579;32;20028;-92
2021/08/18 08:11:24;;;;;;;;;;;;;;;21.23;60.33;99816.94;4451537;32;20280;-93
2021/08/18 08:13:49;;;;;;;;;;;;;;;21.37;60.34;99816.78;4451620;32;20110;-92
2021/08/18 08:16:15;;;;;;;;;;;;;;;21.31;60.33;99806.66;4438637;32;20013;-92
2021/08/18 08:18:40;;;;;;;;;;;;;;;21.41;60.34;99816.44;4451576;32;20015;-89
2021/08/18 08:21:05;;;;;;;;;;;;;;;21.61;60.35;99812.25;4451884;32;19974;-90
2021/08/18 08:23:30;;;;;;;;;;;;;;;21.63;60.35;99817.44;4451354;32;20389;-89
2021/08/18 08:25:56;;;;;;;;;;;;;;;21.87;60.36;99817.34;4438211;32;20016;-91
2021/08/18 08:28:21;;;;;;;;;;;;;;;22.05;60.38;99806.19;4451451;32;19978;-89
2021/08/18 08:30:49;;;;;;;;;;;;;;;21.82;60.36;99815.06;4451212;32;20227;-89
2021/08/18 08:33:14;;;;;;;;;;;;;;;21.89;60.37;99828.69;4438307;32;20024;-90
2021/08/18 08:35:39;;;;;;;;;;;;;;;22.00;60.37;99820.72;4438653;32;19993;-89
2021/08/18 08:38:05;;;;;;;;;;;;;;;22.04;60.38;99814.28;4438343;32;20056;-91
2021/08/18 08:40:30;;;;;;;;;;;;;;;22.21;60.39;99823.53;4438287;32;20271;-90
2021/08/18 08:42:55;;;;;;;;;;;;;;;22.32;60.39;99813.78;4438011;32;20274;-90
2021/08/18 08:45:20;;;;;;;;;;;;;;;22.17;60.38;99814.97;4440319;32;19993;-90
2021/08/18 08:47:46;;;;;;;;;;;;;;;22.34;60.40;99813.66;4454075;32;20009;-90
2021/08/18 08:50:11;;;;;;;;;;;;;;;22.61;60.41;99813.25;4438197;32;20035;-90
2021/08/18 08:52:37;;;;;;;;;;;;;;;22.57;60.41;99811.81;4451380;32;20322;-91
2021/08/18 08:55:05;;;;;;;;;;;;;;;22.58;60.41;99809.03;4451281;32;19988;-90
2021/08/18 08:57:30;;;;;;;;;;;;;;;22.80;60.43;99808.13;4438217;32;20461;-93
2021/08/18 08:59:55;;;;;;;;;;;;;;;22.87;60.42;99800.53;4439094;32;20012;-92
2021/08/18 09:02:21;;;;;;;;;;;;;;;23.26;60.43;99793.75;4450986;32;20402;-90
2021/08/18 09:04:46;;;;;;;;;;;;;;;22.96;60.42;99802.44;4438187;32;20047;-91
2021/08/18 09:07:16;;;;;;;;;;;;;;;22.92;60.42;99806.31;4437802;32;20005;-91
2021/08/18 09:09:42;;;;;;;;;;;;;;;23.13;60.44;99803.69;4450898;32;20004;-89
2021/08/18 09:12:14;;;;;;;;;;;;;;;23.46;60.45;99803.53;4438177;32;19970;-90
2021/08/18 09:14:39;;;;;;;;;;;;;;;23.57;60.45;99807.97;4437240;32;19970;-91
2021/08/18 09:17:23;;;;;;;;;;;;;;;23.78;60.47;99795.50;4451064;32;19984;-91
2021/08/18 09:19:55;;;;;;;;;;;;;;;23.22;60.44;99808.25;4438465;32;20025;-90
2021/08/18 09:22:21;;;;;;;;;;;;;;;22.82;60.42;99813.34;4452659;32;19998;-93
2021/08/18 09:24:46;;;;;;;;;;;;;;;22.82;60.42;99822.16;4452695;32;19988;-92
2021/08/18 09:27:11;;;;;;;;;;;;;;;22.84;60.42;99814.06;4452521;32;20015;-91
2021/08/18 09:29:46;;;;;;;;;;;;;;;22.74;60.42;99810.44;4451788;32;20000;-90
2021/08/18 09:32:21;;;;;;;;;;;;;;;22.53;60.41;99810.37;4450065;32;20338;-90
2021/08/18 09:34:56;;;;;;;;;;;;;;;22.62;60.41;99813.13;4439027;32;20367;-91
2021/08/18 09:37:22;;;;;;;;;;;;;;;22.73;60.42;99814.06;4437808;32;20040;-90
2021/08/18 09:39:47;;;;;;;;;;;;;;;22.76;60.42;99806.69;4437638;32;20015;-90
2021/08/18 09:42:25;;;;;;;;;;;;;;;22.90;60.43;99803.78;4437411;32;20065;-90
2021/08/18 09:44:51;;;;;;;;;;;;;;;23.18;60.45;99797.00;4438843;32;19988;-91
2021/08/18 09:47:16;;;;;;;;;;;;;;;23.50;60.45;99798.78;4450409;32;20001;-90
2021/08/18 09:49:43;;;;;;;;;;;;;;;23.48;60.45;99796.28;4436920;32;19981;-90
2021/08/18 09:52:08;;;;;;;;;;;;;;;23.22;60.44;99789.66;4437419;32;19997;-91
2021/08/18 09:54:36;;;;;;;;;;;;;;;23.21;60.44;99796.78;4438699;32;19996;-91
2021/08/18 09:57:05;;;;;;;;;;;;;;;23.21;60.44;99783.50;4437428;32;20073;-91
2021/08/18 09:59:31;;;;;;;;;;;;;;;23.10;60.44;99795.97;4437162;32;19985;-90
2021/08/18 10:01:56;;;;;;;;;;;;;;;23.05;60.44;99799.03;4436934;32;24519;-90
2021/08/18 10:04:21;;;;;;;;;;;;;;;22.82;60.42;99803.56;4450549;32;19986;-90
2021/08/18 10:06:46;;;;;;;;;;;;;;;22.91;60.43;99797.50;4438482;32;20001;-90
2021/08/18 10:09:12;;;;;;;;;;;;;;;22.95;60.43;99790.16;4449821;32;21328;-91
2021/08/18 10:11:37;;;;;;;;;;;;;;;23.05;60.44;99792.88;4449895;32;20020;-91
2021/08/18 10:14:02;;;;;;;;;;;;;;;23.12;60.45;99794.03;4449549;32;19973;-91
2021/08/18 10:16:29;;;;;;;;;;;;;;;23.19;60.45;99800.53;4436903;32;19997;-90
2021/08/18 10:18:57;;;;;;;;;;;;;;;23.16;60.44;99798.13;4449707;32;20013;-90
2021/08/18 10:21:23;;;;;;;;;;;;;;;23.05;60.44;99787.56;4437274;32;20737;-90
2021/08/18 10:23:59;;;;;;;;;;;;;;;23.14;60.44;99789.44;4462000;32;19989;-89
2021/08/18 10:26:33;;;;;;;;;;;;;;;23.45;60.46;99782.41;4463000;32;20011;-89
2021/08/18 10:29:01;;;;;;;;;;;;;;;23.76;60.48;99775.34;4446191;32;19993;-91
2021/08/18 10:31:42;;;;;;;;;;;;;;;23.68;60.47;99788.47;4454224;32;20056;-90
2021/08/18 10:34:07;;;;;;;;;;;;;;;23.94;60.48;99768.44;4439112;32;20337;-90
2021/08/18 10:36:41;;;;;;;;;;;;;;;23.84;60.48;99771.03;4440626;32;19979;-91
2021/08/18 10:39:19;;;;;;;;;;;;;;;24.27;60.50;99769.09;4439251;32;20001;-89
2021/08/18 10:42:03;;;;;;;;;;;;;;;24.34;60.50;99772.91;4439021;32;20051;-91
2021/08/18 10:44:47;;;;;;;;;;;;;;;24.12;60.50;99769.47;4440442;32;20406;-90
2021/08/18 10:47:16;;;;;;;;;;;;;;;24.22;60.50;99781.97;4451841;32;20337;-91
2021/08/18 10:49:41;;;;;;;;;;;;;;;24.24;60.50;99774.69;4440203;32;19996;-90
2021/08/18 10:52:07;;;;;;;;;;;;;;;24.70;60.53;99764.31;4439100;32;20001;-90
2021/08/18 10:54:32;;;;;;;;;;;;;;;24.68;60.53;99771.59;4451845;32;19989;-91
2021/08/18 10:57:00;;;;;;;;;;;;;;;24.72;60.53;99766.84;4438884;32;20258;-91
2021/08/18 10:59:34;;;;;;;;;;;;;;;24.90;60.55;99778.47;4439141;32;20008;-90
2021/08/18 11:02:00;;;;;;;;;;;;;;;24.66;60.52;99773.56;4438924;32;20796;-90
2021/08/18 11:04:44;;;;;;;;;;;;;;;24.65;60.52;99779.87;4451884;32;19981;-91
2021/08/18 11:07:10;;;;;;;;;;;;;;;24.31;60.51;99778.50;4438917;32;19977;-90
2021/08/18 11:09:55;;;;;;;;;;;;;;;24.08;60.50;99780.50;4438936;32;20013;-90
2021/08/18 11:12:51;;;;;;;;;;;;;;;24.44;60.52;99777.31;4431871;32;20697;-91
2021/08/18 11:15:19;;;;;;;;;;;;;;;24.61;60.52;99770.47;4438729;32;20396;-91
2021/08/18 11:17:45;;;;;;;;;;;;;;;24.83;60.54;99774.66;4439919;32;19973;-91
2021/08/18 11:20:11;;;;;;;;;;;;;;;25.11;60.55;99770.38;4451640;32;20437;-91
2021/08/18 11:22:36;;;;;;;;;;;;;;;24.97;60.54;99781.41;4438793;32;19997;-91
2021/08/18 11:25:02;;;;;;;;;;;;;;;24.84;60.54;99784.34;4438579;32;20004;-91
2021/08/18 11:27:27;;;;;;;;;;;;;;;24.75;60.53;99779.84;4451590;32;20037;-91
2021/08/18 11:29:52;;;;;;;;;;;;;;;24.66;60.52;99770.91;4438655;32;19985;-91
2021/08/18 11:32:23;;;;;;;;;;;;;;;24.85;60.54;99763.91;4438672;32;20017;-91
2021/08/18 11:34:49;;;;;;;;;;;;;;;24.92;60.54;99765.03;4439157;32;20060;-90
2021/08/18 11:37:14;;;;;;;;;;;;;;;24.66;60.53;99767.41;4438704;32;19973;-90
2021/08/18 11:39:41;;;;;;;;;;;;;;;24.62;60.53;99768.66;4438602;32;19996;-92
2021/08/18 11:42:12;;;;;;;;;;;;;;;24.48;60.51;99767.22;4438608;32;20011;-91
2021/08/18 11:44:42;;;;;;;;;;;;;;;24.33;60.51;99772.06;4438869;32;20338;-91
2021/08/18 11:47:17;;;;;;;;;;;;;;;24.47;60.52;99770.88;4451288;32;19977;-91
2021/08/18 11:49:45;;;;;;;;;;;;;;;24.45;60.52;99775.47;4438597;32;19996;-91
2021/08/18 11:52:19;;;;;;;;;;;;;;;24.39;60.52;99765.37;4440081;32;20010;-91
2021/08/18 11:54:51;;;;;;;;;;;;;;;24.60;60.53;99754.63;4451759;32;20370;-90
2021/08/18 11:57:16;;;;;;;;;;;;;;;24.64;60.52;99756.87;4438344;32;20001;-90
2021/08/18 11:59:41;;;;;;;;;;;;;;;24.73;60.53;99760.53;4451395;32;20037;-90
2021/08/18 12:02:07;;;;;;;;;;;;;;;24.90;60.54;99759.00;4451174;32;20043;-90
2021/08/18 12:04:33;;;;;;;;;;;;;;;25.14;60.55;99759.44;4438314;32;20040;-90
2021/08/18 12:07:05;;;;;;;;;;;;;;;25.21;60.55;99760.53;4437929;32;20012;-91
2021/08/18 12:09:31;;;;;;;;;;;;;;;24.89;60.54;99778.63;4438442;32;20053;-91
2021/08/18 12:12:06;;;;;;;;;;;;;;;24.60;60.53;99774.09;4439430;32;19985;-90
2021/08/18 12:14:36;;;;;;;;;;;;;;;24.55;60.52;99765.69;4451153;32;20045;-90
2021/08/18 12:17:01;;;;;;;;;;;;;;;24.63;60.53;99771.19;4439952;32;19978;-91
2021/08/18 12:19:27;;;;;;;;;;;;;;;24.37;60.52;99769.97;4451216;32;20030;-90
2021/08/18 12:22:05;;;;;;;;;;;;;;;24.19;60.50;99772.44;4438695;32;20004;-92
2021/08/18 12:24:31;;;;;;;;;;;;;;;24.21;60.51;99766.97;4452305;32;20345;-91
2021/08/18 12:26:57;;;;;;;;;;;;;;;24.35;60.51;99769.28;4441535;32;19987;-91
2021/08/18 12:29:22;;;;;;;;;;;;;;;24.19;60.50;99778.59;4439801;32;20053;-91
2021/08/18 12:31:54;;;;;;;;;;;;;;;24.19;60.50;99759.97;4451835;32;19981;-90
2021/08/18 12:34:41;;;;;;;;;;;;;;;24.33;60.51;99753.44;4451989;32;19979;-90
2021/08/18 12:37:10;;;;;;;;;;;;;;;24.22;60.51;99761.53;4439636;32;19988;-90
2021/08/18 12:39:39;;;;;;;;;;;;;;;24.51;60.52;99755.47;4439611;32;20307;-91
2021/08/18 12:42:06;;;;;;;;;;;;;;;24.46;60.52;99747.88;4454256;32;20030;-90
2021/08/18 12:44:32;;;;;;;;;;;;;;;24.58;60.52;99749.44;4448358;32;19988;-90
2021/08/18 12:47:11;;;;;;;;;;;;;;;24.33;60.51;99748.13;4455579;32;19981;-92